Elgin, Minnesota
Current Conditions -  °F | °C
As of 4:34 PM on Wednesday 22 Oct 2014 (Local Time) from K9MN Reporting Station
Broken Clouds Broken Clouds  
Wind Chill: 58°   Ceiling: 6500
Heat Index: 58°   Visibility: 10mi
Dew Point: 36°   Wind: 17mph
Humidity: 44%   Direction: 130°SE
Pressure: 30.13"   Gusts: 25mph
Location:  44.13°N, 92.25°W
Report Text: K9MN 222134Z AUTO 13015G22KT 10SM SCT036 BKN065 14/02 A3013 RMK AO1 T01420022
Loading
Personal Weather Stations






























Interactive Weather Map
Tropical Storm Tracking
New forecast layout! Learn more

10-Day Weather Forecast

Advertisements
Track Severe Weather on mobile